createdAt,value
2022-08-24T00:01:58.198Z,68.30
2022-08-24T00:04:27.088Z,68.50
2022-08-24T00:06:56.602Z,68.80
2022-08-24T00:09:24.984Z,68.80
2022-08-24T00:11:53.247Z,68.80
2022-08-24T00:14:21.445Z,68.70
2022-08-24T00:16:49.835Z,68.60
2022-08-24T00:19:19.474Z,69.10
2022-08-24T00:21:47.620Z,69.00
2022-08-24T00:24:16.026Z,68.90
2022-08-24T00:26:45.979Z,69.10
2022-08-24T00:29:14.541Z,69.00
2022-08-24T00:31:42.942Z,68.80
2022-08-24T00:34:13.307Z,69.20
2022-08-24T00:36:43.425Z,68.90
2022-08-24T00:39:12.273Z,68.90
2022-08-24T00:41:42.888Z,69.20
2022-08-24T00:44:11.675Z,69.10
2022-08-24T00:46:49.444Z,69.10
2022-08-24T00:49:24.529Z,69.30
2022-08-24T00:52:03.766Z,69.20
2022-08-24T00:54:35.030Z,69.50
2022-08-24T00:57:07.331Z,69.50
2022-08-24T00:59:40.809Z,69.50
2022-08-24T01:02:15.854Z,69.20
2022-08-24T01:04:50.637Z,69.50
2022-08-24T01:07:22.736Z,69.60
2022-08-24T01:09:51.331Z,69.60
2022-08-24T01:12:19.914Z,69.80
2022-08-24T01:14:48.563Z,69.80
2022-08-24T01:17:39.178Z,69.70
2022-08-24T01:20:11.418Z,69.80
2022-08-24T01:22:57.969Z,69.60
2022-08-24T01:25:30.088Z,69.80
2022-08-24T01:28:02.720Z,70.00
2022-08-24T01:30:36.368Z,69.70
2022-08-24T01:33:08.894Z,69.50
2022-08-24T01:35:39.891Z,69.60
2022-08-24T01:38:12.603Z,69.70
2022-08-24T01:40:47.161Z,70.00
2022-08-24T01:43:16.053Z,70.00
2022-08-24T01:45:44.536Z,70.00
2022-08-24T01:48:13.799Z,69.80
2022-08-24T01:50:42.627Z,69.90
2022-08-24T01:53:11.675Z,69.80
2022-08-24T01:55:41.339Z,70.00
2022-08-24T01:58:11.032Z,69.70
2022-08-24T02:00:41.498Z,70.00
2022-08-24T02:03:09.719Z,70.00
2022-08-24T02:05:38.005Z,70.10
2022-08-24T02:08:06.374Z,69.70
2022-08-24T02:10:35.219Z,70.00
2022-08-24T02:13:05.988Z,70.40
2022-08-24T02:15:39.914Z,70.90
2022-08-24T02:18:15.306Z,70.50
2022-08-24T02:20:45.751Z,70.40
2022-08-24T02:23:14.543Z,70.50
2022-08-24T02:25:44.109Z,70.50
2022-08-24T02:28:12.294Z,70.20
2022-08-24T02:30:41.949Z,70.50
2022-08-24T02:33:10.119Z,70.50
2022-08-24T02:35:38.633Z,70.80
2022-08-24T02:38:09.960Z,70.70
2022-08-24T02:40:39.936Z,70.30
2022-08-24T02:43:08.203Z,70.70
2022-08-24T02:45:41.478Z,71.10
2022-08-24T02:48:10.479Z,70.90
2022-08-24T02:50:40.479Z,71.10
2022-08-24T02:53:08.733Z,70.90
2022-08-24T02:55:39.289Z,71.00
2022-08-24T02:58:07.464Z,71.00
2022-08-24T03:00:38.567Z,71.30
2022-08-24T03:03:11.448Z,71.10
2022-08-24T03:05:40.738Z,71.00
2022-08-24T03:08:09.824Z,71.20
2022-08-24T03:10:38.011Z,71.10
2022-08-24T03:13:07.572Z,71.40
2022-08-24T03:15:36.493Z,71.40
2022-08-24T03:18:05.160Z,71.50
2022-08-24T03:20:34.646Z,71.30
2022-08-24T03:23:03.650Z,71.60
2022-08-24T03:25:32.545Z,71.50
2022-08-24T03:28:01.233Z,71.60
2022-08-24T03:30:29.991Z,71.90
2022-08-24T03:33:00.208Z,72.00
2022-08-24T03:35:28.646Z,72.00
2022-08-24T03:37:58.731Z,71.90
2022-08-24T03:40:26.963Z,72.20
2022-08-24T03:42:57.827Z,72.40
2022-08-24T03:45:26.365Z,72.40
2022-08-24T03:47:55.714Z,72.60
2022-08-24T03:50:25.443Z,72.40
2022-08-24T03:52:53.824Z,72.60
2022-08-24T03:55:23.711Z,72.80
2022-08-24T03:57:53.131Z,72.90
2022-08-24T04:00:21.563Z,73.10
2022-08-24T04:02:57.858Z,74.00
2022-08-24T04:05:27.844Z,73.20
2022-08-24T04:08:03.372Z,73.40
2022-08-24T04:10:33.195Z,73.60
2022-08-24T04:13:01.759Z,73.50
2022-08-24T04:15:32.131Z,73.50
2022-08-24T04:18:00.277Z,73.70
2022-08-24T04:20:28.706Z,74.00
2022-08-24T04:22:57.492Z,73.90
2022-08-24T04:25:25.785Z,73.70
2022-08-24T04:27:55.263Z,74.30
2022-08-24T04:30:24.659Z,74.40
2022-08-24T04:33:12.246Z,74.30
2022-08-24T04:35:42.743Z,74.20
2022-08-24T04:38:11.554Z,74.20
2022-08-24T04:40:48.994Z,74.40
2022-08-24T04:43:20.191Z,74.60
2022-08-24T04:45:51.212Z,74.40
2022-08-24T04:48:21.539Z,74.50
2022-08-24T04:50:49.940Z,74.60
2022-08-24T04:53:18.775Z,74.60
2022-08-24T04:55:51.967Z,74.80
2022-08-24T04:58:21.915Z,74.80
2022-08-24T05:00:50.713Z,74.90
2022-08-24T05:03:19.343Z,75.00
2022-08-24T05:05:50.088Z,75.20
2022-08-24T05:08:19.800Z,75.30
2022-08-24T05:10:50.514Z,75.30
2022-08-24T05:13:19.727Z,75.50
2022-08-24T05:15:50.489Z,75.60
2022-08-24T05:18:18.733Z,75.70
2022-08-24T05:20:48.601Z,75.70
2022-08-24T05:23:19.749Z,76.10
2022-08-24T05:25:48.043Z,76.40
2022-08-24T05:28:16.191Z,76.40
2022-08-24T05:30:44.314Z,76.30
2022-08-24T05:33:14.122Z,76.40
2022-08-24T05:35:43.726Z,76.80
2022-08-24T05:38:14.009Z,76.80
2022-08-24T05:40:43.347Z,76.90
2022-08-24T05:43:11.699Z,77.00
2022-08-24T05:45:42.824Z,77.20
2022-08-24T05:48:13.479Z,77.30
2022-08-24T05:51:11.937Z,77.30
2022-08-24T05:53:50.043Z,77.70
2022-08-24T05:56:19.520Z,77.90
2022-08-24T05:58:48.229Z,78.00
2022-08-24T06:01:19.548Z,78.20
2022-08-24T06:03:50.023Z,78.50
2022-08-24T06:06:20.478Z,78.70
2022-08-24T06:08:50.325Z,78.80
2022-08-24T06:11:30.432Z,79.20
2022-08-24T06:14:02.499Z,79.20
2022-08-24T06:16:37.092Z,79.40
2022-08-24T06:19:09.155Z,79.60
2022-08-24T06:21:38.840Z,79.90
2022-08-24T06:24:08.581Z,80.10
2022-08-24T06:26:54.588Z,80.10
2022-08-24T06:29:23.380Z,80.80
2022-08-24T06:31:56.296Z,79.20
2022-08-24T06:34:27.161Z,78.80
2022-08-24T06:36:55.665Z,78.00
2022-08-24T06:39:25.699Z,77.80
2022-08-24T06:41:55.855Z,77.60
2022-08-24T06:44:31.883Z,78.10
2022-08-24T06:47:18.215Z,77.20
2022-08-24T06:49:47.749Z,77.10
2022-08-24T06:52:16.272Z,77.00
2022-08-24T06:54:44.403Z,77.00
2022-08-24T06:57:12.718Z,77.00
2022-08-24T06:59:43.053Z,76.80
2022-08-24T07:02:12.928Z,76.90
2022-08-24T07:04:41.200Z,76.80
2022-08-24T07:07:48.775Z,76.30
2022-08-24T07:10:17.007Z,76.60
2022-08-24T07:12:51.626Z,76.60
2022-08-24T07:15:20.280Z,76.50
2022-08-24T07:17:59.095Z,76.40
2022-08-24T07:20:27.690Z,76.50
2022-08-24T07:23:42.139Z,76.30
2022-08-24T07:26:21.513Z,76.40
2022-08-24T07:28:52.039Z,76.30
2022-08-24T07:31:21.056Z,76.10
2022-08-24T07:34:09.509Z,75.80
2022-08-24T07:36:44.320Z,75.70
2022-08-24T07:39:14.478Z,75.70
2022-08-24T07:42:09.005Z,75.70
2022-08-24T07:44:32.858Z,75.60
2022-08-24T07:47:10.570Z,75.50
2022-08-24T07:49:49.270Z,75.40
2022-08-24T07:52:17.522Z,75.40
2022-08-24T07:54:49.511Z,75.30
2022-08-24T07:57:18.286Z,75.30
2022-08-24T07:59:47.659Z,75.30
2022-08-24T08:02:16.063Z,75.20
2022-08-24T08:04:49.304Z,75.30
2022-08-24T08:07:18.653Z,75.30
2022-08-24T08:09:51.131Z,75.20
2022-08-24T08:12:19.531Z,75.20
2022-08-24T08:14:57.388Z,75.20
2022-08-24T08:17:25.672Z,75.10
2022-08-24T08:19:54.121Z,75.10
2022-08-24T08:22:40.217Z,75.10
2022-08-24T08:25:29.901Z,75.00
2022-08-24T08:28:04.264Z,75.00
2022-08-24T08:30:42.210Z,75.00
2022-08-24T08:33:10.884Z,74.80
2022-08-24T08:35:39.321Z,74.80
2022-08-24T08:38:08.999Z,75.10
2022-08-24T08:40:55.418Z,75.20
2022-08-24T08:43:41.132Z,75.40
2022-08-24T08:46:38.669Z,75.30
2022-08-24T08:49:49.012Z,75.10
2022-08-24T08:52:55.110Z,75.10
2022-08-24T08:55:31.702Z,75.00
2022-08-24T08:58:17.366Z,75.00
2022-08-24T09:00:53.555Z,75.10
2022-08-24T09:03:52.349Z,74.90
2022-08-24T09:07:00.185Z,74.70
2022-08-24T09:10:04.014Z,74.80
2022-08-24T09:12:47.380Z,74.60
2022-08-24T09:15:30.885Z,74.60
2022-08-24T09:18:13.757Z,74.70
2022-08-24T09:21:01.408Z,74.70
2022-08-24T09:23:37.616Z,74.60
2022-08-24T09:26:10.885Z,74.50
2022-08-24T09:28:44.965Z,74.50
2022-08-24T09:31:41.743Z,74.50
2022-08-24T09:34:23.348Z,74.50
2022-08-24T09:36:56.118Z,74.40
2022-08-24T09:39:52.816Z,74.10
2022-08-24T09:42:51.779Z,73.90
2022-08-24T09:45:39.134Z,73.50
2022-08-24T09:48:40.627Z,73.60
2022-08-24T09:51:44.401Z,73.40
2022-08-24T09:54:51.352Z,73.30
2022-08-24T09:57:59.926Z,74.30
2022-08-24T10:00:31.319Z,73.70
2022-08-24T10:03:08.303Z,74.20
2022-08-24T10:06:10.958Z,73.50
2022-08-24T10:08:56.222Z,73.30
2022-08-24T10:11:35.662Z,73.40
2022-08-24T10:14:14.429Z,73.60
2022-08-24T10:16:55.724Z,73.30
2022-08-24T10:20:02.365Z,73.50
2022-08-24T10:23:01.734Z,73.20
2022-08-24T10:25:37.015Z,73.00
2022-08-24T10:28:45.471Z,73.10
2022-08-24T10:31:18.414Z,72.90
2022-08-24T10:34:00.191Z,73.00
2022-08-24T10:36:58.163Z,72.40
2022-08-24T10:39:57.848Z,72.60
2022-08-24T10:43:14.415Z,72.40
2022-08-24T10:46:25.340Z,72.20
2022-08-24T10:49:32.198Z,71.80
2022-08-24T10:52:26.938Z,71.70
2022-08-24T10:54:57.099Z,71.60
2022-08-24T10:57:32.850Z,71.80
2022-08-24T11:00:07.616Z,71.70
2022-08-24T11:02:38.226Z,71.60
2022-08-24T11:05:09.325Z,71.80
2022-08-24T11:07:40.120Z,71.70
2022-08-24T11:10:11.168Z,71.20
2022-08-24T11:12:42.678Z,71.20
2022-08-24T11:15:23.981Z,71.00
2022-08-24T11:17:56.528Z,70.60
2022-08-24T11:20:30.254Z,71.00
2022-08-24T11:23:03.246Z,70.70
2022-08-24T11:25:36.687Z,70.60
2022-08-24T11:28:09.602Z,70.00
2022-08-24T11:30:41.108Z,69.90
2022-08-24T11:33:27.295Z,69.80
2022-08-24T11:35:55.850Z,70.00
2022-08-24T11:38:27.376Z,70.10
2022-08-24T11:41:04.507Z,70.70
2022-08-24T11:43:53.963Z,70.40
2022-08-24T11:46:33.301Z,70.30
2022-08-24T11:49:10.726Z,70.10
2022-08-24T11:51:47.805Z,69.50
2022-08-24T11:54:26.318Z,69.50
2022-08-24T11:57:09.897Z,69.80
2022-08-24T11:59:46.446Z,70.70
2022-08-24T12:02:21.657Z,70.60
2022-08-24T12:04:56.165Z,70.40
2022-08-24T12:07:41.248Z,70.40
2022-08-24T12:10:21.713Z,70.80
2022-08-24T12:12:59.262Z,70.90
2022-08-24T12:15:40.035Z,71.10
2022-08-24T12:18:22.096Z,71.30
2022-08-24T12:20:51.746Z,71.30
2022-08-24T12:23:27.162Z,71.30
2022-08-24T12:26:04.622Z,70.70
2022-08-24T12:28:38.707Z,70.20
2022-08-24T12:31:14.135Z,69.70
2022-08-24T12:33:49.835Z,69.00
2022-08-24T12:36:26.118Z,68.60
2022-08-24T12:39:05.987Z,69.00
2022-08-24T12:41:37.184Z,69.50
2022-08-24T12:44:12.660Z,69.80
2022-08-24T12:46:43.093Z,70.10
2022-08-24T12:49:18.067Z,70.20
2022-08-24T12:52:08.431Z,70.40
2022-08-24T12:54:55.938Z,70.40
2022-08-24T12:57:59.507Z,70.30
2022-08-24T13:00:34.914Z,70.00
2022-08-24T13:03:06.408Z,69.60
2022-08-24T13:05:43.873Z,69.40
2022-08-24T13:08:16.490Z,69.80
2022-08-24T13:10:53.523Z,69.80
2022-08-24T13:13:41.465Z,70.20
2022-08-24T13:16:11.862Z,70.50
2022-08-24T13:19:15.959Z,70.80
2022-08-24T13:21:51.798Z,70.70
2022-08-24T13:24:45.019Z,70.90
2022-08-24T13:27:52.091Z,71.50
2022-08-24T13:30:26.817Z,70.70
2022-08-24T13:33:04.564Z,70.60
2022-08-24T13:35:55.825Z,70.80
2022-08-24T13:39:04.906Z,70.80
2022-08-24T13:42:04.522Z,70.80
2022-08-24T13:44:54.741Z,70.70
2022-08-24T13:47:29.964Z,70.90
2022-08-24T13:50:10.296Z,71.00
2022-08-24T13:52:45.587Z,70.70
2022-08-24T13:55:29.389Z,70.40
2022-08-24T13:58:13.934Z,70.90
2022-08-24T14:00:51.827Z,71.30
2022-08-24T14:03:38.180Z,71.20
2022-08-24T14:06:22.993Z,71.20
2022-08-24T14:09:01.627Z,71.40
2022-08-24T14:11:45.225Z,71.30
2022-08-24T14:14:22.329Z,71.30
2022-08-24T14:17:21.729Z,71.60
2022-08-24T14:20:00.789Z,71.60
2022-08-24T14:22:37.370Z,71.20
2022-08-24T14:25:21.024Z,70.90
2022-08-24T14:27:51.539Z,70.20
2022-08-24T14:30:45.027Z,70.10
2022-08-24T14:33:27.278Z,70.60
2022-08-24T14:36:15.934Z,70.90
2022-08-24T14:39:04.106Z,70.90
2022-08-24T14:41:47.505Z,70.90
2022-08-24T14:44:25.062Z,70.40
2022-08-24T14:47:03.457Z,70.20
2022-08-24T14:49:39.104Z,70.20
2022-08-24T14:52:43.429Z,70.30
2022-08-24T14:55:21.629Z,70.00
2022-08-24T14:58:05.182Z,69.40
2022-08-24T15:00:56.344Z,68.90
2022-08-24T15:04:03.235Z,68.80
2022-08-24T15:06:41.357Z,69.00
2022-08-24T15:09:18.251Z,68.70
2022-08-24T15:11:50.439Z,68.70
2022-08-24T15:14:33.706Z,68.20
2022-08-24T15:17:10.336Z,68.50
2022-08-24T15:19:48.066Z,69.10
2022-08-24T15:22:25.536Z,68.80
2022-08-24T15:24:59.396Z,69.50
2022-08-24T15:27:40.604Z,69.30
2022-08-24T15:30:20.589Z,69.40
2022-08-24T15:32:51.865Z,69.40
2022-08-24T15:35:26.149Z,69.50
2022-08-24T15:37:54.699Z,69.50
2022-08-24T15:40:29.536Z,70.00
2022-08-24T15:43:03.210Z,70.30
2022-08-24T15:45:33.910Z,70.20
2022-08-24T15:48:04.435Z,70.50
2022-08-24T15:50:40.763Z,70.40
2022-08-24T15:53:25.621Z,70.30
2022-08-24T15:55:53.896Z,70.20
2022-08-24T15:58:31.185Z,69.80
2022-08-24T16:01:36.247Z,69.80
2022-08-24T16:04:06.800Z,70.00
2022-08-24T16:06:41.269Z,69.80
2022-08-24T16:09:15.598Z,69.40
2022-08-24T16:11:49.186Z,69.70
2022-08-24T16:14:29.345Z,69.70
2022-08-24T16:16:58.764Z,69.10
2022-08-24T16:19:28.893Z,69.70
2022-08-24T16:22:01.135Z,69.90
2022-08-24T16:24:32.788Z,69.30
2022-08-24T16:27:05.217Z,69.40
2022-08-24T16:29:53.551Z,69.10
2022-08-24T16:32:32.456Z,69.10
2022-08-24T16:35:19.003Z,69.50
2022-08-24T16:37:47.261Z,69.40
2022-08-24T16:40:15.928Z,69.50
2022-08-24T16:42:44.228Z,69.40
2022-08-24T16:45:18.370Z,69.90
2022-08-24T16:47:46.978Z,70.00
2022-08-24T16:50:17.488Z,70.10
2022-08-24T16:52:46.176Z,70.30
2022-08-24T16:55:14.521Z,70.30
2022-08-24T16:57:43.495Z,70.00
2022-08-24T17:00:17.610Z,69.90
2022-08-24T17:02:48.111Z,69.80
2022-08-24T17:05:17.030Z,69.80
2022-08-24T17:07:45.983Z,70.10
2022-08-24T17:10:16.765Z,70.00
2022-08-24T17:12:44.865Z,70.00
2022-08-24T17:15:16.123Z,69.20
2022-08-24T17:17:49.228Z,68.90
2022-08-24T17:20:17.413Z,68.10
2022-08-24T17:22:45.480Z,67.70
2022-08-24T17:25:13.797Z,67.50
2022-08-24T17:27:42.132Z,67.10
2022-08-24T17:30:11.788Z,67.60
2022-08-24T17:32:41.243Z,67.60
2022-08-24T17:35:09.942Z,67.50
2022-08-24T17:37:38.463Z,67.00
2022-08-24T17:40:09.704Z,67.50
2022-08-24T17:42:50.894Z,67.00
2022-08-24T17:45:20.298Z,66.60
2022-08-24T17:47:50.677Z,66.90
2022-08-24T17:50:19.836Z,66.70
2022-08-24T17:52:48.661Z,66.50
2022-08-24T17:55:24.976Z,66.30
2022-08-24T17:57:53.779Z,66.30
2022-08-24T18:00:22.222Z,66.40
2022-08-24T18:02:51.761Z,66.40
2022-08-24T18:05:20.102Z,66.40
2022-08-24T18:07:53.940Z,66.50
2022-08-24T18:10:25.195Z,66.50
2022-08-24T18:12:53.435Z,66.50
2022-08-24T18:15:34.582Z,66.50
2022-08-24T18:18:09.245Z,66.50
2022-08-24T18:20:40.465Z,66.50
2022-08-24T18:23:11.511Z,66.50
2022-08-24T18:25:43.898Z,66.60
2022-08-24T18:28:12.151Z,66.60
2022-08-24T18:30:41.613Z,66.60
2022-08-24T18:33:11.922Z,66.70
2022-08-24T18:35:40.128Z,66.70
2022-08-24T18:38:08.539Z,66.80
2022-08-24T18:40:36.904Z,66.70
2022-08-24T18:43:05.719Z,66.80
2022-08-24T18:45:34.707Z,66.70
2022-08-24T18:48:03.207Z,66.60
2022-08-24T18:50:36.769Z,66.50
2022-08-24T18:53:07.042Z,66.60
2022-08-24T18:55:37.146Z,66.60
2022-08-24T18:58:05.384Z,66.50
2022-08-24T19:00:34.251Z,66.30
2022-08-24T19:03:05.752Z,66.20
2022-08-24T19:05:35.423Z,66.20
2022-08-24T19:08:04.209Z,66.10
2022-08-24T19:10:37.386Z,66.00
2022-08-24T19:13:09.668Z,65.80
2022-08-24T19:15:40.258Z,65.70
2022-08-24T19:18:09.787Z,65.70
2022-08-24T19:20:44.538Z,65.50
2022-08-24T19:23:20.003Z,65.60
2022-08-24T19:25:48.806Z,65.60
2022-08-24T19:28:17.305Z,65.40
2022-08-24T19:30:46.734Z,65.20
2022-08-24T19:33:25.992Z,65.10
2022-08-24T19:35:56.242Z,65.20
2022-08-24T19:38:26.176Z,65.30
2022-08-24T19:40:57.034Z,65.10
2022-08-24T19:43:26.282Z,64.90
2022-08-24T19:46:06.244Z,64.70
2022-08-24T19:48:37.200Z,64.60
2022-08-24T19:51:11.689Z,64.50
2022-08-24T19:53:40.247Z,64.50
2022-08-24T19:56:08.903Z,64.30
2022-08-24T19:58:46.434Z,64.30
2022-08-24T20:01:18.845Z,64.20
2022-08-24T20:03:47.057Z,64.00
2022-08-24T20:06:20.863Z,64.00
2022-08-24T20:08:49.646Z,63.80
2022-08-24T20:11:18.873Z,63.90
2022-08-24T20:13:47.394Z,63.80
2022-08-24T20:16:21.201Z,63.90
2022-08-24T20:18:49.592Z,63.90
2022-08-24T20:21:19.091Z,63.80
2022-08-24T20:23:47.426Z,64.00
2022-08-24T20:26:15.811Z,63.90
2022-08-24T20:28:47.350Z,64.00
2022-08-24T20:31:16.643Z,64.20
2022-08-24T20:33:44.876Z,64.30
2022-08-24T20:36:23.748Z,64.40
2022-08-24T20:38:52.524Z,65.10
2022-08-24T20:41:21.422Z,64.50
2022-08-24T20:43:50.047Z,64.60
2022-08-24T20:46:18.231Z,64.70
2022-08-24T20:48:47.611Z,64.70
2022-08-24T20:51:25.522Z,64.80
2022-08-24T20:53:53.845Z,65.00
2022-08-24T20:56:30.680Z,65.10
2022-08-24T20:59:01.507Z,65.40
2022-08-24T21:01:29.873Z,65.30
2022-08-24T21:04:02.787Z,65.30
2022-08-24T21:06:34.623Z,65.50
2022-08-24T21:09:03.414Z,65.70
2022-08-24T21:11:32.842Z,65.90
2022-08-24T21:14:00.996Z,65.50
2022-08-24T21:16:29.486Z,65.60
2022-08-24T21:18:57.575Z,65.60
2022-08-24T21:21:25.677Z,65.70
2022-08-24T21:23:55.142Z,65.60
2022-08-24T21:26:26.538Z,65.50
2022-08-24T21:28:56.169Z,65.40
2022-08-24T21:31:24.359Z,65.50
2022-08-24T21:34:10.019Z,65.70
2022-08-24T21:36:38.543Z,65.70
2022-08-24T21:39:10.956Z,65.70
2022-08-24T21:41:39.952Z,65.90
2022-08-24T21:44:09.288Z,66.10
2022-08-24T21:46:39.578Z,65.90
2022-08-24T21:49:12.016Z,66.00
2022-08-24T21:51:40.860Z,66.00
2022-08-24T21:54:11.058Z,65.60
2022-08-24T21:56:39.262Z,65.60
2022-08-24T21:59:07.848Z,65.70
2022-08-24T22:01:36.070Z,66.00
2022-08-24T22:04:04.859Z,66.10
2022-08-24T22:06:33.792Z,66.30
2022-08-24T22:09:02.348Z,66.10
2022-08-24T22:11:32.015Z,66.30
2022-08-24T22:14:00.422Z,66.30
2022-08-24T22:16:28.798Z,66.50
2022-08-24T22:18:57.162Z,66.40
2022-08-24T22:21:29.400Z,66.70
2022-08-24T22:23:58.561Z,66.80
2022-08-24T22:26:27.664Z,66.90
2022-08-24T22:28:57.318Z,66.90
2022-08-24T22:31:28.679Z,66.90
2022-08-24T22:33:59.395Z,67.00
2022-08-24T22:36:29.281Z,67.10
2022-08-24T22:38:58.901Z,67.00
2022-08-24T22:41:28.028Z,66.90
2022-08-24T22:44:15.897Z,67.10
2022-08-24T22:46:44.405Z,67.20
2022-08-24T22:49:13.001Z,67.30
2022-08-24T22:51:41.979Z,67.40
2022-08-24T22:54:10.710Z,67.50
2022-08-24T22:56:41.112Z,67.50
2022-08-24T22:59:16.328Z,67.70
2022-08-24T23:01:45.736Z,68.10
2022-08-24T23:04:15.891Z,68.00
2022-08-24T23:06:44.834Z,67.90
2022-08-24T23:09:13.300Z,68.00
2022-08-24T23:11:41.637Z,68.10
2022-08-24T23:14:12.462Z,68.20
2022-08-24T23:16:44.830Z,68.20
2022-08-24T23:19:30.493Z,68.40
2022-08-24T23:21:58.610Z,68.50
2022-08-24T23:24:26.701Z,68.70
2022-08-24T23:26:55.467Z,68.70
2022-08-24T23:29:25.301Z,69.00
2022-08-24T23:31:53.880Z,68.80
2022-08-24T23:34:22.581Z,69.00
2022-08-24T23:36:51.315Z,68.90
2022-08-24T23:39:21.131Z,69.10
2022-08-24T23:41:50.784Z,69.20
2022-08-24T23:44:21.733Z,69.30
2022-08-24T23:46:51.512Z,69.30
2022-08-24T23:49:21.780Z,69.40
2022-08-24T23:51:50.776Z,69.60
2022-08-24T23:54:22.059Z,69.50
2022-08-24T23:56:51.222Z,69.60
2022-08-24T23:59:22.276Z,69.60
